createdAt,value
2023-03-04T00:01:57.876Z,74.01
2023-03-04T00:06:59.426Z,73.85
2023-03-04T00:12:01.027Z,73.88
2023-03-04T00:17:04.521Z,74.40
2023-03-04T00:22:06.206Z,74.20
2023-03-04T00:27:07.786Z,73.76
2023-03-04T00:32:09.555Z,73.74
2023-03-04T00:37:11.182Z,73.53
2023-03-04T00:42:12.761Z,73.70
2023-03-04T00:47:14.327Z,73.99
2023-03-04T00:52:15.912Z,73.78
2023-03-04T00:57:17.634Z,73.59
2023-03-04T01:02:19.174Z,73.46
2023-03-04T01:07:20.722Z,73.74
2023-03-04T01:12:22.370Z,74.00
2023-03-04T01:17:24.237Z,73.56
2023-03-04T01:22:25.749Z,73.48
2023-03-04T01:27:27.298Z,73.57
2023-03-04T01:32:29.063Z,73.62
2023-03-04T01:37:30.601Z,74.01
2023-03-04T01:42:34.655Z,74.11
2023-03-04T01:47:36.456Z,73.80
2023-03-04T01:52:40.166Z,73.87
2023-03-04T01:57:41.885Z,73.95
2023-03-04T02:02:43.534Z,74.17
2023-03-04T02:07:45.113Z,74.47
2023-03-04T02:12:47.029Z,74.27
2023-03-04T02:17:48.698Z,74.21
2023-03-04T02:23:14.977Z,74.22
2023-03-04T02:28:16.896Z,74.31
2023-03-04T02:33:19.370Z,74.76
2023-03-04T02:38:21.999Z,74.66
2023-03-04T02:43:23.531Z,74.39
2023-03-04T02:48:25.158Z,74.67
2023-03-04T02:53:26.740Z,75.05
2023-03-04T02:58:28.379Z,74.88
2023-03-04T03:03:30.168Z,74.88
2023-03-04T03:08:31.820Z,75.01
2023-03-04T03:13:33.348Z,75.37
2023-03-04T03:18:34.822Z,75.12
2023-03-04T03:23:36.433Z,75.01
2023-03-04T03:28:37.963Z,74.89
2023-03-04T03:33:39.451Z,75.15
2023-03-04T03:38:40.972Z,75.36
2023-03-04T03:43:42.528Z,75.13
2023-03-04T03:48:44.012Z,74.80
2023-03-04T03:53:45.491Z,75.08
2023-03-04T03:58:47.007Z,74.78
2023-03-04T04:03:48.502Z,74.85
2023-03-04T04:08:50.073Z,75.03
2023-03-04T04:13:51.544Z,75.08
2023-03-04T04:18:53.084Z,74.49
2023-03-04T04:23:54.559Z,74.59
2023-03-04T04:28:56.130Z,74.47
2023-03-04T04:33:57.640Z,74.77
2023-03-04T04:38:59.369Z,74.65
2023-03-04T04:44:00.943Z,74.69
2023-03-04T04:49:03.456Z,74.87
2023-03-04T04:54:06.389Z,74.88
2023-03-04T04:59:08.645Z,74.75
2023-03-04T05:04:10.728Z,74.71
2023-03-04T05:09:12.988Z,74.62
2023-03-04T05:14:14.639Z,75.05
2023-03-04T05:19:16.262Z,74.72
2023-03-04T05:24:17.800Z,74.71
2023-03-04T05:29:19.378Z,75.15
2023-03-04T05:34:20.868Z,74.76
2023-03-04T05:39:22.551Z,74.47
2023-03-04T05:44:24.076Z,74.30
2023-03-04T05:49:25.611Z,74.63
2023-03-04T05:54:27.153Z,74.84
2023-03-04T05:59:28.686Z,74.34
2023-03-04T06:04:30.245Z,74.19
2023-03-04T06:09:31.833Z,74.06
2023-03-04T06:14:33.364Z,74.00
2023-03-04T06:19:34.852Z,74.52
2023-03-04T06:24:36.450Z,74.11
2023-03-04T06:29:37.919Z,73.87
2023-03-04T06:34:39.421Z,73.85
2023-03-04T06:39:40.921Z,74.12
2023-03-04T06:44:42.416Z,74.12
2023-03-04T06:49:43.903Z,73.67
2023-03-04T06:54:45.435Z,73.47
2023-03-04T06:59:46.917Z,73.49
2023-03-04T07:04:48.597Z,73.68
2023-03-04T07:09:50.206Z,74.22
2023-03-04T07:14:51.737Z,73.73
2023-03-04T07:19:53.460Z,73.39
2023-03-04T07:24:55.591Z,73.44
2023-03-04T07:29:57.104Z,73.52
2023-03-04T07:34:58.736Z,74.14
2023-03-04T07:40:00.229Z,73.64
2023-03-04T07:45:01.962Z,73.41
2023-03-04T07:50:03.970Z,73.27
2023-03-04T07:55:06.199Z,73.24
2023-03-04T08:00:08.760Z,73.52
2023-03-04T08:05:10.292Z,73.31
2023-03-04T08:10:12.213Z,73.12
2023-03-04T08:15:14.091Z,72.76
2023-03-04T08:20:15.642Z,72.64
2023-03-04T08:25:17.314Z,72.50
2023-03-04T08:30:19.144Z,73.10
2023-03-04T08:35:20.754Z,72.22
2023-03-04T08:40:22.298Z,71.41
2023-03-04T08:45:23.928Z,71.64
2023-03-04T08:50:27.429Z,71.59
2023-03-04T08:55:29.041Z,71.49
2023-03-04T09:00:30.571Z,72.19
2023-03-04T09:05:32.778Z,71.69
2023-03-04T09:10:34.422Z,71.34
2023-03-04T09:15:36.173Z,71.21
2023-03-04T09:20:37.788Z,71.24
2023-03-04T09:25:39.972Z,71.53
2023-03-04T09:30:42.003Z,72.12
2023-03-04T09:35:44.410Z,71.81
2023-03-04T09:40:49.501Z,71.39
2023-03-04T09:45:55.083Z,71.30
2023-03-04T09:51:18.207Z,71.50
2023-03-04T09:56:19.830Z,71.84
2023-03-04T10:01:39.989Z,71.21
2023-03-04T10:06:42.667Z,70.98
2023-03-04T10:11:51.228Z,70.74
2023-03-04T10:16:56.070Z,70.67
2023-03-04T10:21:57.643Z,71.38
2023-03-04T10:27:07.879Z,70.92
2023-03-04T10:32:21.969Z,70.54
2023-03-04T10:37:23.500Z,70.63
2023-03-04T10:42:30.192Z,70.54
2023-03-04T10:47:33.048Z,70.37
2023-03-04T10:52:49.942Z,70.14
2023-03-04T10:58:06.334Z,70.82
2023-03-04T11:03:31.349Z,70.50
2023-03-04T11:08:33.595Z,70.13
2023-03-04T11:13:35.335Z,69.94
2023-03-04T11:18:50.680Z,69.94
2023-03-04T11:24:03.454Z,70.00
2023-03-04T11:29:28.437Z,70.12
2023-03-04T11:34:42.661Z,70.86
2023-03-04T11:39:48.662Z,70.42
2023-03-04T11:44:51.208Z,70.19
2023-03-04T11:50:04.792Z,70.36
2023-03-04T11:55:09.223Z,70.45
2023-03-04T12:00:55.454Z,70.86
2023-03-04T12:06:07.388Z,71.24
2023-03-04T12:11:22.659Z,70.80
2023-03-04T12:16:33.439Z,70.76
2023-03-04T12:21:39.488Z,70.94
2023-03-04T12:27:06.094Z,71.16
2023-03-04T12:32:13.748Z,71.86
2023-03-04T12:37:25.740Z,72.14
2023-03-04T12:42:32.828Z,71.83
2023-03-04T12:47:51.097Z,71.96
2023-03-04T12:52:52.541Z,72.29
2023-03-04T12:57:57.064Z,72.39
2023-03-04T13:03:14.006Z,72.74
2023-03-04T13:08:38.599Z,73.06
2023-03-04T13:13:42.425Z,74.23
2023-03-04T13:18:45.217Z,75.45
2023-03-04T13:23:46.927Z,75.93
2023-03-04T13:29:10.374Z,75.51
2023-03-04T13:34:48.276Z,76.21
2023-03-04T13:40:23.332Z,76.45
2023-03-04T13:45:39.218Z,76.60
2023-03-04T13:50:46.613Z,76.51
2023-03-04T13:56:10.182Z,75.60
2023-03-04T14:01:33.220Z,74.92
2023-03-04T14:06:34.733Z,73.82
2023-03-04T14:11:42.344Z,73.21
2023-03-04T14:17:02.861Z,72.41
2023-03-04T14:22:21.420Z,72.24
2023-03-04T14:27:22.939Z,72.46
2023-03-04T14:32:26.011Z,71.92
2023-03-04T14:37:37.881Z,71.89
2023-03-04T14:42:45.019Z,72.02
2023-03-04T14:47:48.506Z,72.35
2023-03-04T14:53:03.750Z,71.94
2023-03-04T14:58:19.830Z,72.48
2023-03-04T15:03:28.537Z,71.91
2023-03-04T15:08:37.315Z,71.76
2023-03-04T15:13:54.780Z,71.08
2023-03-04T15:19:08.549Z,71.30
2023-03-04T15:24:11.798Z,72.18
2023-03-04T15:29:20.937Z,72.36
2023-03-04T15:34:22.517Z,71.27
2023-03-04T15:39:24.085Z,71.23
2023-03-04T15:44:25.585Z,71.99
2023-03-04T15:49:27.188Z,72.42
2023-03-04T15:54:29.258Z,72.73
2023-03-04T15:59:30.777Z,72.60
2023-03-04T16:04:32.418Z,71.39
2023-03-04T16:09:34.369Z,67.92
2023-03-04T16:14:35.845Z,60.94
2023-03-04T16:19:37.368Z,55.56
2023-03-04T16:24:38.968Z,56.64
2023-03-04T16:29:40.763Z,55.32
2023-03-04T16:34:42.280Z,55.15
2023-03-04T16:39:46.266Z,55.23
2023-03-04T16:44:49.461Z,54.77
2023-03-04T16:49:51.060Z,53.46
2023-03-04T16:54:52.807Z,51.98
2023-03-04T16:59:55.268Z,51.55
2023-03-04T17:04:58.342Z,51.96
2023-03-04T17:09:59.836Z,51.74
2023-03-04T17:15:04.184Z,51.40
2023-03-04T17:20:08.816Z,49.59
2023-03-04T17:25:11.648Z,48.71
2023-03-04T17:30:13.859Z,49.38
2023-03-04T17:35:15.399Z,49.72
2023-03-04T17:40:17.011Z,48.18
2023-03-04T17:45:18.609Z,46.48
2023-03-04T17:50:21.127Z,46.71
2023-03-04T17:55:22.620Z,45.93
2023-03-04T18:00:24.281Z,47.11
2023-03-04T18:05:25.758Z,46.76
2023-03-04T18:10:27.256Z,46.53
2023-03-04T18:15:28.863Z,46.20
2023-03-04T18:20:30.365Z,46.23
2023-03-04T18:25:31.903Z,46.13
2023-03-04T18:30:33.433Z,46.25
2023-03-04T18:35:35.178Z,45.82
2023-03-04T18:40:40.024Z,45.43
2023-03-04T18:45:41.533Z,45.16
2023-03-04T18:50:43.103Z,44.71
2023-03-04T18:55:44.880Z,44.98
2023-03-04T19:00:46.561Z,44.40
2023-03-04T19:05:48.105Z,44.93
2023-03-04T19:10:49.577Z,45.41
2023-03-04T19:15:52.686Z,45.36
2023-03-04T19:20:54.172Z,44.46
2023-03-04T19:25:55.948Z,44.10
2023-03-04T19:30:59.224Z,44.23
2023-03-04T19:36:03.403Z,43.78
2023-03-04T19:41:10.265Z,44.22
2023-03-04T19:46:12.949Z,43.79
2023-03-04T19:51:23.310Z,44.17
2023-03-04T19:56:25.434Z,44.09
2023-03-04T20:01:30.030Z,45.08
2023-03-04T20:06:31.696Z,44.95
2023-03-04T20:11:35.929Z,44.25
2023-03-04T20:16:41.024Z,45.21
2023-03-04T20:21:43.995Z,45.03
2023-03-04T20:26:45.615Z,45.60
2023-03-04T20:31:47.159Z,45.87
2023-03-04T20:36:48.654Z,45.48
2023-03-04T20:41:50.145Z,46.25
2023-03-04T20:46:52.091Z,46.11
2023-03-04T20:51:56.382Z,46.67
2023-03-04T20:56:58.064Z,47.64
2023-03-04T21:01:59.966Z,46.96
2023-03-04T21:07:02.397Z,47.39
2023-03-04T21:12:04.421Z,48.04
2023-03-04T21:17:06.201Z,48.82
2023-03-04T21:22:08.349Z,49.18
2023-03-04T21:27:10.037Z,49.81
2023-03-04T21:32:25.081Z,50.28
2023-03-04T21:37:27.079Z,50.56
2023-03-04T21:42:28.775Z,50.82
2023-03-04T21:47:30.306Z,51.02
2023-03-04T21:52:31.845Z,51.47
2023-03-04T21:57:33.343Z,51.48
2023-03-04T22:02:34.856Z,51.74
2023-03-04T22:07:36.600Z,51.61
2023-03-04T22:12:38.179Z,51.55
2023-03-04T22:17:39.784Z,52.01
2023-03-04T22:22:41.420Z,52.17
2023-03-04T22:27:42.938Z,52.28
2023-03-04T22:32:45.759Z,52.56
2023-03-04T22:37:47.331Z,52.66
2023-03-04T22:42:49.211Z,52.85
2023-03-04T22:47:52.871Z,53.01
2023-03-04T22:52:54.677Z,53.17
2023-03-04T22:57:56.367Z,53.31
2023-03-04T23:02:58.426Z,53.43
2023-03-04T23:07:59.956Z,53.54
2023-03-04T23:13:01.464Z,53.75
2023-03-04T23:18:03.166Z,53.80
2023-03-04T23:23:04.704Z,53.94
2023-03-04T23:28:06.204Z,54.17
2023-03-04T23:33:07.843Z,54.16
2023-03-04T23:38:09.408Z,54.47
2023-03-04T23:43:10.897Z,54.57
2023-03-04T23:48:12.437Z,54.70
2023-03-04T23:53:13.996Z,54.93
2023-03-04T23:58:15.742Z,55.14
